Terminal Aerodrome Forecast
Issued by NWS

Home | Current Version | Previous Version | Text Only | Print | Product List | Glossary On
Versions: 1 2 3 4 5 6 7 8 9 10 11 12 13 14 15 16
000
FTUS42 KMLB 250500
TAFTIX
TAF
KTIX 250539Z 2506/2606 29003KT P6SM SCT060
     FM251200 32010KT P6SM SCT035 BKN110 BKN250
     FM252200 03005KT P6SM SCT035 BKN060
     FM260100 01005KT P6SM SCT010 BKN025
      AMD NOT SKED TIL 251200=

USA.gov is the U.S. government's official web portal to all federal, state and local government web resources and services.